Terminal Aerodrome Forecast
Issued by NWS

Home | Current Version | Previous Version | Text Only | Print | Product List | Glossary On
Versions: 1 2 3 4 5 6 7 8 9 10 11 12 13 14 15 16 17 18 19 20 21 22 23 24 25 26
000
FTUS46 KSEW 251100
TAFSEA
TAF
KSEA 251120Z 2512/2618 14006KT 6SM BR SCT002 OVC009
      TEMPO 2513/2517 3SM BR BKN002 OVC006
     FM251800 21006KT P6SM SCT010 BKN017 OVC030
     FM252200 24006KT P6SM VCSH SCT016 BKN030 OVC050
     FM260200 18004KT P6SM VCSH SCT025 BKN050
     FM260600 15004KT P6SM OVC035
     FM261200 08003KT P6SM OVC015=

USA.gov is the U.S. government's official web portal to all federal, state and local government web resources and services.